Terminal Aerodrome Forecast
Issued by NWS

Current Version | Previous Version | Graphics & Text | Print | Product List | Glossary On
Versions: 1 2 3 4 5 6 7 8 9 10 11 12 13 14 15 16 17 18 19 20 21 22 23 24 25 26
000
FTUS41 KPBZ 040658 AAA
TAFMGW
TAF AMD
KMGW 040658Z 0407/0506 00000KT P6SM BKN006
     FM041300 VRB03KT P6SM BKN015
     FM041500 24005KT P6SM VCSH BKN050
     FM050200 VRB03KT 5SM -SHRA OVC020=

USA.gov is the U.S. government's official web portal to all federal, state and local government web resources and services.